Seneca Rocks, WV (26884)

6:20 PM EST en Enero 24, 2017 (GMT -0500)
Middle Mountain | | Change Station

Alt 1808 ft 38.86 °N, 79.19 °W | Updated 1 second ago

Nublado
Nublado
41.4 ° F
Sensación térmica 41 ° F
N
2.9
Viento Variable Viento desde Oeste
Gusts 4.9 mph

Hoy
Alta -- | Baja -- ° F
--% Posibilidad de precipitaciones
Ayer
Alta -- | Baja -- ° F
Precip. -- pul
Presión 29.70 pul
Visibilidad 10.0 Millas
Nubes Nubes dispersas 3000 ft
Muy nublado 3600 ft
Nublado 5500 ft
Vientos helados 41 ° F
Punto de rocío 33 ° F
Humedad 72%
Precipitaciones 0.18 pul
Espesor de la nieve No disponible.
7:29 AM 5:30 PM
Creciente menguante, 9% visible
METAR KW99 242250Z AUTO 27009KT 10SM SCT030 BKN036 OVC055 09/03 A2970 RMK AO2 T00850031
Presión 29.70 pul
Visibilidad 10.0 Millas
Nubes Nubes dispersas 3000 ft
Muy nublado 3600 ft
Nublado 5500 ft
Vientos helados 41 ° F
Punto de rocío 33 ° F
Humedad 72%
Precipitaciones 0.18 pul
Espesor de la nieve No disponible.
7:29 AM 5:30 PM
Creciente menguante, 9% visible
METAR KW99 242250Z AUTO 27009KT 10SM SCT030 BKN036 OVC055 09/03 A2970 RMK AO2 T00850031

Get Your Daily Forecast Email!

Thanks for signing up!

Be on the lookout for a verification email in your inbox.

You'll start receiving the daily forecast at 8 AM.

×

10-Day Weather Forecast

Almanac

Astronomía

Jan. 24, 2017 Salida Puesta
Hora real
Crepúsculo civil
Crepúsculo náutico
Crepúsculo astronómico
Luna
Horas de luz
Horas de luz
Tomorrow will be .
, % of the Moon is Illuminated

Extremos de hoy

Máximos del estado Bajos del estado

Community

WunderPhotos

Upload Photos

1,962,540 ¡fotos cargadas!

WunderBlog® & News

Nearby

Calidad del aire

  Calidad del aire Índice AQ Contaminante
Not available.

Grosos de nieve

Estación Profundido Altura

Actividad de terremotos

Ciudad Distance Mag. Tiempo y dato
Magnitud mínima muestra es 2,5.

Temperaturas de aguas costeras

Lugar Temperatura

Stations

Estaciones meteorológicas cercanas

Ubicación de la estación Temp. Vientos helados Punto de rocío Humedad Viento Precip. Alt Actualizado Tipo
                   

Watches & Warnings

There are currently no watches in effect.